sensor_id;sensor_type;location;lat;lon;timestamp;pressure;altitude;pressure_sealevel;temperature;humidity
2339;BME280;1180;51.438;6.978;2023-03-01T00:01:05;101694.78;;;4.04;61.40
2339;BME280;1180;51.438;6.978;2023-03-01T00:03:31;101694.63;;;4.23;60.61
2339;BME280;1180;51.438;6.978;2023-03-01T00:05:57;101696.47;;;4.03;60.86
2339;BME280;1180;51.438;6.978;2023-03-01T00:08:23;101702.47;;;3.96;61.43
2339;BME280;1180;51.438;6.978;2023-03-01T00:10:48;101700.84;;;3.87;61.55
2339;BME280;1180;51.438;6.978;2023-03-01T00:13:13;101700.88;;;3.84;61.38
2339;BME280;1180;51.438;6.978;2023-03-01T00:15:40;101694.91;;;3.88;61.30
2339;BME280;1180;51.438;6.978;2023-03-01T00:18:06;101692.34;;;3.92;61.58
2339;BME280;1180;51.438;6.978;2023-03-01T00:20:32;101696.47;;;4.05;61.22
2339;BME280;1180;51.438;6.978;2023-03-01T00:23:03;101692.19;;;4.10;60.94
2339;BME280;1180;51.438;6.978;2023-03-01T00:25:28;101688.97;;;3.89;61.59
2339;BME280;1180;51.438;6.978;2023-03-01T00:27:54;101686.47;;;3.88;61.57
2339;BME280;1180;51.438;6.978;2023-03-01T00:30:19;101680.59;;;3.78;61.70
2339;BME280;1180;51.438;6.978;2023-03-01T00:32:44;101682.34;;;3.71;62.30
2339;BME280;1180;51.438;6.978;2023-03-01T00:35:10;101673.78;;;3.83;62.20
2339;BME280;1180;51.438;6.978;2023-03-01T00:37:35;101671.31;;;3.74;62.40
2339;BME280;1180;51.438;6.978;2023-03-01T00:40:00;101673.88;;;3.74;62.29
2339;BME280;1180;51.438;6.978;2023-03-01T00:42:27;101668.81;;;3.71;62.66
2339;BME280;1180;51.438;6.978;2023-03-01T00:44:52;101667.16;;;3.64;62.50
2339;BME280;1180;51.438;6.978;2023-03-01T00:47:17;101665.50;;;3.61;62.55
2339;BME280;1180;51.438;6.978;2023-03-01T00:49:42;101665.38;;;3.76;62.64
2339;BME280;1180;51.438;6.978;2023-03-01T00:52:08;101658.56;;;3.82;62.41
2339;BME280;1180;51.438;6.978;2023-03-01T00:54:33;101659.44;;;3.79;62.19
2339;BME280;1180;51.438;6.978;2023-03-01T00:56:58;101656.09;;;3.72;62.01
2339;BME280;1180;51.438;6.978;2023-03-01T00:59:24;101658.56;;;3.82;62.24
2339;BME280;1180;51.438;6.978;2023-03-01T01:01:49;101658.56;;;3.79;61.90
2339;BME280;1180;51.438;6.978;2023-03-01T01:04:14;101649.25;;;3.84;61.78
2339;BME280;1180;51.438;6.978;2023-03-01T01:06:45;101651.81;;;3.78;62.03
2339;BME280;1180;51.438;6.978;2023-03-01T01:09:13;101653.47;;;3.83;61.71
2339;BME280;1180;51.438;6.978;2023-03-01T01:11:43;101647.56;;;3.83;61.84
2339;BME280;1180;51.438;6.978;2023-03-01T01:14:08;101647.56;;;3.80;62.26
2339;BME280;1180;51.438;6.978;2023-03-01T01:16:34;101637.50;;;3.67;62.34
2339;BME280;1180;51.438;6.978;2023-03-01T01:18:59;101633.31;;;3.61;62.52
2339;BME280;1180;51.438;6.978;2023-03-01T01:21:25;101639.28;;;3.57;63.19
2339;BME280;1180;51.438;6.978;2023-03-01T01:23:51;101628.31;;;3.52;63.07
2339;BME280;1180;51.438;6.978;2023-03-01T01:26:21;101628.28;;;3.58;62.88
2339;BME280;1180;51.438;6.978;2023-03-01T01:28:47;101624.88;;;3.59;62.98
2339;BME280;1180;51.438;6.978;2023-03-01T01:31:12;101611.31;;;3.65;62.77
2339;BME280;1180;51.438;6.978;2023-03-01T01:33:37;101612.97;;;3.68;62.67
2339;BME280;1180;51.438;6.978;2023-03-01T01:36:05;101613.16;;;3.46;63.03
2339;BME280;1180;51.438;6.978;2023-03-01T01:38:30;101610.66;;;3.38;63.64
2339;BME280;1180;51.438;6.978;2023-03-01T01:40:56;101607.31;;;3.35;63.61
2339;BME280;1180;51.438;6.978;2023-03-01T01:43:25;101609.78;;;3.39;63.81
2339;BME280;1180;51.438;6.978;2023-03-01T01:45:55;101598.94;;;3.22;64.34
2339;BME280;1180;51.438;6.978;2023-03-01T01:48:24;101603.91;;;3.37;63.84
2339;BME280;1180;51.438;6.978;2023-03-01T01:50:59;101608.13;;;3.40;63.87
2339;BME280;1180;51.438;6.978;2023-03-01T01:53:26;101602.34;;;3.14;64.44
2339;BME280;1180;51.438;6.978;2023-03-01T01:55:55;101598.88;;;3.31;64.47
2339;BME280;1180;51.438;6.978;2023-03-01T01:58:25;101601.47;;;3.25;64.17
2339;BME280;1180;51.438;6.978;2023-03-01T02:00:53;101605.75;;;3.16;64.25
2339;BME280;1180;51.438;6.978;2023-03-01T02:03:25;101603.31;;;2.99;64.93
2339;BME280;1180;51.438;6.978;2023-03-01T02:06:04;101610.94;;;2.93;65.09
2339;BME280;1180;51.438;6.978;2023-03-01T02:08:33;101610.94;;;2.90;65.84
2339;BME280;1180;51.438;6.978;2023-03-01T02:11:00;101609.13;;;3.15;65.04
2339;BME280;1180;51.438;6.978;2023-03-01T02:13:26;101601.63;;;2.98;65.03
2339;BME280;1180;51.438;6.978;2023-03-01T02:15:52;101595.69;;;2.99;65.09
2339;BME280;1180;51.438;6.978;2023-03-01T02:18:20;101593.19;;;2.90;65.64
2339;BME280;1180;51.438;6.978;2023-03-01T02:23:17;101596.44;;;3.14;65.06
2339;BME280;1180;51.438;6.978;2023-03-01T02:28:25;101586.22;;;3.26;64.03
2339;BME280;1180;51.438;6.978;2023-03-01T02:30:53;101587.03;;;3.28;64.02
2339;BME280;1180;51.438;6.978;2023-03-01T02:33:38;101584.53;;;3.24;63.94
2339;BME280;1180;51.438;6.978;2023-03-01T02:36:08;101582.06;;;3.16;64.25
2339;BME280;1180;51.438;6.978;2023-03-01T02:38:35;101578.69;;;3.12;64.44
2339;BME280;1180;51.438;6.978;2023-03-01T02:41:01;101578.78;;;3.01;64.74
2339;BME280;1180;51.438;6.978;2023-03-01T02:43:30;101580.41;;;3.12;64.70
2339;BME280;1180;51.438;6.978;2023-03-01T02:46:05;101582.03;;;3.19;64.46
2339;BME280;1180;51.438;6.978;2023-03-01T02:48:40;101576.97;;;3.14;64.72
2339;BME280;1180;51.438;6.978;2023-03-01T02:56:07;101583.75;;;3.17;64.54
2339;BME280;1180;51.438;6.978;2023-03-01T02:58:39;101584.63;;;3.11;64.53
2339;BME280;1180;51.438;6.978;2023-03-01T03:01:11;101587.97;;;3.15;64.54
2339;BME280;1180;51.438;6.978;2023-03-01T03:03:38;101588.84;;;3.14;64.46
2339;BME280;1180;51.438;6.978;2023-03-01T03:06:04;101582.03;;;3.21;64.87
2339;BME280;1180;51.438;6.978;2023-03-01T03:08:29;101587.06;;;3.25;64.39
2339;BME280;1180;51.438;6.978;2023-03-01T03:10:54;101590.56;;;3.09;64.87
2339;BME280;1180;51.438;6.978;2023-03-01T03:13:20;101579.56;;;3.10;64.75
2339;BME280;1180;51.438;6.978;2023-03-01T03:15:47;101576.19;;;3.11;64.82
2339;BME280;1180;51.438;6.978;2023-03-01T03:18:15;101582.19;;;2.94;64.93
2339;BME280;1180;51.438;6.978;2023-03-01T03:20:42;101575.38;;;3.04;64.87
2339;BME280;1180;51.438;6.978;2023-03-01T03:23:08;101577.09;;;2.97;65.27
2339;BME280;1180;51.438;6.978;2023-03-01T03:25:34;101576.25;;;2.95;65.35
2339;BME280;1180;51.438;6.978;2023-03-01T03:28:03;101584.84;;;2.71;66.11
2339;BME280;1180;51.438;6.978;2023-03-01T03:30:35;101580.59;;;2.76;66.02
2339;BME280;1180;51.438;6.978;2023-03-01T03:33:01;101574.72;;;2.72;66.40
2339;BME280;1180;51.438;6.978;2023-03-01T03:35:39;101570.44;;;2.78;66.09
2339;BME280;1180;51.438;6.978;2023-03-01T03:38:08;101567.94;;;2.74;65.82
2339;BME280;1180;51.438;6.978;2023-03-01T03:40:42;101561.03;;;2.95;65.50
2339;BME280;1180;51.438;6.978;2023-03-01T03:43:10;101557.72;;;2.87;65.15
2339;BME280;1180;51.438;6.978;2023-03-01T03:45:37;101561.91;;;2.93;65.22
2339;BME280;1180;51.438;6.978;2023-03-01T03:48:06;101556.97;;;2.72;65.90
2339;BME280;1180;51.438;6.978;2023-03-01T03:50:32;101560.31;;;2.78;65.83
2339;BME280;1180;51.438;6.978;2023-03-01T03:52:59;101558.59;;;2.83;65.56
2339;BME280;1180;51.438;6.978;2023-03-01T03:55:25;101552.66;;;2.88;65.49
2339;BME280;1180;51.438;6.978;2023-03-01T03:57:57;101547.59;;;2.84;65.40
2339;BME280;1180;51.438;6.978;2023-03-01T04:00:23;101543.41;;;2.77;65.85
2339;BME280;1180;51.438;6.978;2023-03-01T04:02:50;101538.38;;;2.72;66.06
2339;BME280;1180;51.438;6.978;2023-03-01T04:05:17;101536.69;;;2.68;66.07
2339;BME280;1180;51.438;6.978;2023-03-01T04:07:43;101539.22;;;2.71;66.15
2339;BME280;1180;51.438;6.978;2023-03-01T04:10:14;101532.50;;;2.68;65.76
2339;BME280;1180;51.438;6.978;2023-03-01T04:12:40;101532.47;;;2.71;65.81
2339;BME280;1180;51.438;6.978;2023-03-01T04:15:08;101535.75;;;2.81;65.58
2339;BME280;1180;51.438;6.978;2023-03-01T04:17:41;101529.13;;;2.62;65.74
2339;BME280;1180;51.438;6.978;2023-03-01T04:20:09;101535.03;;;2.65;65.94
2339;BME280;1180;51.438;6.978;2023-03-01T04:22:36;101525.72;;;2.66;66.04
2339;BME280;1180;51.438;6.978;2023-03-01T04:25:02;101531.69;;;2.54;66.40
2339;BME280;1180;51.438;6.978;2023-03-01T04:27:27;101529.22;;;2.49;66.71
2339;BME280;1180;51.438;6.978;2023-03-01T04:29:52;101533.44;;;2.45;66.87
2339;BME280;1180;51.438;6.978;2023-03-01T04:32:18;101541.09;;;2.27;67.35
2339;BME280;1180;51.438;6.978;2023-03-01T04:34:43;101540.25;;;2.33;67.33
2339;BME280;1180;51.438;6.978;2023-03-01T04:37:09;101538.50;;;2.50;66.81
2339;BME280;1180;51.438;6.978;2023-03-01T04:39:34;101533.44;;;2.44;66.75
2339;BME280;1180;51.438;6.978;2023-03-01T04:42:11;101530.09;;;2.36;66.73
2339;BME280;1180;51.438;6.978;2023-03-01T04:44:37;101542.00;;;2.12;67.63
2339;BME280;1180;51.438;6.978;2023-03-01T04:47:02;101535.25;;;2.20;67.79
2339;BME280;1180;51.438;6.978;2023-03-01T04:49:27;101537.75;;;2.26;67.80
2339;BME280;1180;51.438;6.978;2023-03-01T04:51:52;101536.03;;;2.24;67.17
2339;BME280;1180;51.438;6.978;2023-03-01T04:54:18;101531.00;;;2.21;67.50
2339;BME280;1180;51.438;6.978;2023-03-01T04:56:43;101523.38;;;2.28;67.55
2339;BME280;1180;51.438;6.978;2023-03-01T04:59:08;101528.47;;;2.21;67.29
2339;BME280;1180;51.438;6.978;2023-03-01T05:01:35;101527.63;;;2.15;67.79
2339;BME280;1180;51.438;6.978;2023-03-01T05:04:01;101530.19;;;2.17;67.68
2339;BME280;1180;51.438;6.978;2023-03-01T05:06:28;101531.81;;;2.23;67.67
2339;BME280;1180;51.438;6.978;2023-03-01T05:08:53;101534.38;;;2.20;67.36
2339;BME280;1180;51.438;6.978;2023-03-01T05:11:19;101524.25;;;2.15;67.68
2339;BME280;1180;51.438;6.978;2023-03-01T05:13:44;101514.97;;;2.14;67.80
2339;BME280;1180;51.438;6.978;2023-03-01T05:16:10;101514.94;;;2.22;67.86
2339;BME280;1180;51.438;6.978;2023-03-01T05:18:39;101513.28;;;2.13;67.64
2339;BME280;1180;51.438;6.978;2023-03-01T05:21:09;101506.53;;;2.16;67.89
2339;BME280;1180;51.438;6.978;2023-03-01T05:23:35;101506.56;;;2.07;68.15
2339;BME280;1180;51.438;6.978;2023-03-01T05:26:02;101507.44;;;2.03;68.22
2339;BME280;1180;51.438;6.978;2023-03-01T05:28:29;101501.56;;;1.93;68.51
2339;BME280;1180;51.438;6.978;2023-03-01T05:30:55;101504.84;;;2.15;68.02
2339;BME280;1180;51.438;6.978;2023-03-01T05:33:21;101504.06;;;2.04;68.08
2339;BME280;1180;51.438;6.978;2023-03-01T05:35:48;101501.53;;;1.99;68.06
2339;BME280;1180;51.438;6.978;2023-03-01T05:38:14;101501.47;;;2.12;67.73
2339;BME280;1180;51.438;6.978;2023-03-01T05:40:41;101503.22;;;2.02;67.71
2339;BME280;1180;51.438;6.978;2023-03-01T05:43:07;101493.91;;;2.10;67.44
2339;BME280;1180;51.438;6.978;2023-03-01T05:45:33;101497.19;;;2.34;67.03
2339;BME280;1180;51.438;6.978;2023-03-01T05:48:00;101497.16;;;2.37;67.05
2339;BME280;1180;51.438;6.978;2023-03-01T05:50:28;101495.44;;;2.41;66.67
2339;BME280;1180;51.438;6.978;2023-03-01T05:53:05;101499.66;;;2.43;66.45
2339;BME280;1180;51.438;6.978;2023-03-01T05:55:31;101503.09;;;2.28;66.96
2339;BME280;1180;51.438;6.978;2023-03-01T05:58:06;101509.81;;;2.39;66.88
2339;BME280;1180;51.438;6.978;2023-03-01T06:00:32;101505.59;;;2.38;66.71
2339;BME280;1180;51.438;6.978;2023-03-01T06:02:58;101505.63;;;2.36;66.43
2339;BME280;1180;51.438;6.978;2023-03-01T06:05:24;101503.03;;;2.44;66.38
2339;BME280;1180;51.438;6.978;2023-03-01T06:07:50;101504.72;;;2.43;66.39
2339;BME280;1180;51.438;6.978;2023-03-01T06:10:16;101498.88;;;2.32;66.68
2339;BME280;1180;51.438;6.978;2023-03-01T06:12:42;101498.94;;;2.21;67.03
2339;BME280;1180;51.438;6.978;2023-03-01T06:15:10;101496.34;;;2.35;66.64
2339;BME280;1180;51.438;6.978;2023-03-01T06:17:38;101484.53;;;2.29;66.62
2339;BME280;1180;51.438;6.978;2023-03-01T06:20:05;101483.59;;;2.43;66.48
2339;BME280;1180;51.438;6.978;2023-03-01T06:22:31;101492.06;;;2.43;66.23
2339;BME280;1180;51.438;6.978;2023-03-01T06:24:56;101493.78;;;2.38;66.49
2339;BME280;1180;51.438;6.978;2023-03-01T06:27:22;101492.97;;;2.30;66.71
2339;BME280;1180;51.438;6.978;2023-03-01T06:29:47;101491.25;;;2.38;67.00
2339;BME280;1180;51.438;6.978;2023-03-01T06:32:14;101488.66;;;2.48;66.29
2339;BME280;1180;51.438;6.978;2023-03-01T06:34:39;101484.50;;;2.34;66.49
2339;BME280;1180;51.438;6.978;2023-03-01T06:37:04;101486.22;;;2.32;66.70
2339;BME280;1180;51.438;6.978;2023-03-01T06:39:31;101481.09;;;2.40;66.67
2339;BME280;1180;51.438;6.978;2023-03-01T06:41:57;101483.63;;;2.41;66.45
2339;BME280;1180;51.438;6.978;2023-03-01T06:44:22;101486.97;;;2.50;66.20
2339;BME280;1180;51.438;6.978;2023-03-01T06:46:48;101491.22;;;2.40;66.45
2339;BME280;1180;51.438;6.978;2023-03-01T06:49:14;101492.97;;;2.30;66.79
2339;BME280;1180;51.438;6.978;2023-03-01T06:51:41;101488.72;;;2.35;66.83
2339;BME280;1180;51.438;6.978;2023-03-01T06:54:06;101492.97;;;2.33;66.89
2339;BME280;1180;51.438;6.978;2023-03-01T06:56:32;101490.41;;;2.30;66.84
2339;BME280;1180;51.438;6.978;2023-03-01T06:58:58;101483.63;;;2.41;66.61
2339;BME280;1180;51.438;6.978;2023-03-01T07:01:23;101491.19;;;2.49;66.44
2339;BME280;1180;51.438;6.978;2023-03-01T07:04:05;101490.34;;;2.44;66.47
2339;BME280;1180;51.438;6.978;2023-03-01T07:06:30;101484.47;;;2.42;66.35
2339;BME280;1180;51.438;6.978;2023-03-01T07:08:55;101483.69;;;2.32;66.44
2339;BME280;1180;51.438;6.978;2023-03-01T07:11:21;101495.50;;;2.28;66.61
2339;BME280;1180;51.438;6.978;2023-03-01T07:13:46;101487.81;;;2.44;66.85
2339;BME280;1180;51.438;6.978;2023-03-01T07:16:12;101484.44;;;2.51;66.24
2339;BME280;1180;51.438;6.978;2023-03-01T07:18:37;101484.44;;;2.50;66.37
2339;BME280;1180;51.438;6.978;2023-03-01T07:21:07;101476.84;;;2.47;66.18
2339;BME280;1180;51.438;6.978;2023-03-01T07:23:33;101475.19;;;2.39;66.54
2339;BME280;1180;51.438;6.978;2023-03-01T07:25:59;101475.22;;;2.35;66.94
2339;BME280;1180;51.438;6.978;2023-03-01T07:28:25;101477.66;;;2.49;66.67
2339;BME280;1180;51.438;6.978;2023-03-01T07:30:51;101476.03;;;2.40;66.81
2339;BME280;1180;51.438;6.978;2023-03-01T07:33:17;101475.16;;;2.44;66.75
2339;BME280;1180;51.438;6.978;2023-03-01T07:35:42;101468.34;;;2.54;66.58
2339;BME280;1180;51.438;6.978;2023-03-01T07:38:08;101475.13;;;2.49;66.30
2339;BME280;1180;51.438;6.978;2023-03-01T07:40:33;101477.50;;;2.77;65.88
2339;BME280;1180;51.438;6.978;2023-03-01T07:42:59;101478.44;;;2.65;65.72
2339;BME280;1180;51.438;6.978;2023-03-01T07:45:25;101474.28;;;2.54;66.07
2339;BME280;1180;51.438;6.978;2023-03-01T07:47:51;101471.69;;;2.59;65.62
2339;BME280;1180;51.438;6.978;2023-03-01T07:50:17;101475.81;;;2.74;65.77
2339;BME280;1180;51.438;6.978;2023-03-01T07:52:45;101476.69;;;2.71;65.36
2339;BME280;1180;51.438;6.978;2023-03-01T07:55:10;101472.44;;;2.77;64.88
2339;BME280;1180;51.438;6.978;2023-03-01T07:57:36;101475.88;;;2.69;64.77
2339;BME280;1180;51.438;6.978;2023-03-01T08:00:01;101477.63;;;2.55;64.98
2339;BME280;1180;51.438;6.978;2023-03-01T08:02:26;101472.47;;;2.69;65.15
2339;BME280;1180;51.438;6.978;2023-03-01T08:04:52;101488.44;;;2.82;64.40
2339;BME280;1180;51.438;6.978;2023-03-01T08:07:17;101485.19;;;2.66;65.08
2339;BME280;1180;51.438;6.978;2023-03-01T08:09:43;101477.44;;;2.86;64.36
2339;BME280;1180;51.438;6.978;2023-03-01T08:12:09;101480.78;;;2.91;64.29
2339;BME280;1180;51.438;6.978;2023-03-01T08:14:35;101489.16;;;3.02;63.96
2339;BME280;1180;51.438;6.978;2023-03-01T08:17:00;101477.28;;;3.08;63.62
2339;BME280;1180;51.438;6.978;2023-03-01T08:19:28;101474.56;;;3.26;63.51
2339;BME280;1180;51.438;6.978;2023-03-01T08:21:54;101475.38;;;3.33;62.37
2339;BME280;1180;51.438;6.978;2023-03-01T08:24:20;101473.66;;;3.37;62.42
2339;BME280;1180;51.438;6.978;2023-03-01T08:26:45;101473.69;;;3.34;61.87
2339;BME280;1180;51.438;6.978;2023-03-01T08:29:11;101476.97;;;3.40;62.08
2339;BME280;1180;51.438;6.978;2023-03-01T08:31:38;101476.06;;;3.51;61.28
2339;BME280;1180;51.438;6.978;2023-03-01T08:34:07;101473.66;;;3.37;61.48
2339;BME280;1180;51.438;6.978;2023-03-01T08:36:37;101465.28;;;3.27;61.54
2339;BME280;1180;51.438;6.978;2023-03-01T08:39:04;101473.84;;;3.16;61.29
2339;BME280;1180;51.438;6.978;2023-03-01T08:41:30;101472.09;;;3.20;61.51
2339;BME280;1180;51.438;6.978;2023-03-01T08:43:56;101464.41;;;3.26;61.71
2339;BME280;1180;51.438;6.978;2023-03-01T08:46:32;101460.84;;;3.49;65.52
2339;BME280;1180;51.438;6.978;2023-03-01T08:48:59;101462.31;;;3.70;64.30
2339;BME280;1180;51.438;6.978;2023-03-01T08:51:25;101462.03;;;3.94;63.92
2339;BME280;1180;51.438;6.978;2023-03-01T08:53:51;101454.78;;;4.33;64.57
2339;BME280;1180;51.438;6.978;2023-03-01T08:56:17;101448.59;;;4.51;60.97
2339;BME280;1180;51.438;6.978;2023-03-01T08:58:47;101451.91;;;4.56;61.01
2339;BME280;1180;51.438;6.978;2023-03-01T09:01:16;101446.41;;;4.26;58.82
2339;BME280;1180;51.438;6.978;2023-03-01T09:03:42;101442.00;;;4.39;59.89
2339;BME280;1180;51.438;6.978;2023-03-01T09:06:08;101440.34;;;4.35;59.16
2339;BME280;1180;51.438;6.978;2023-03-01T09:08:39;101444.34;;;4.52;59.03
2339;BME280;1180;51.438;6.978;2023-03-01T09:11:06;101447.69;;;4.54;58.64
2339;BME280;1180;51.438;6.978;2023-03-01T09:13:32;101444.09;;;4.69;58.39
2339;BME280;1180;51.438;6.978;2023-03-01T09:15:59;101453.06;;;4.33;59.06
2339;BME280;1180;51.438;6.978;2023-03-01T09:18:25;101439.53;;;4.33;59.93
2339;BME280;1180;51.438;6.978;2023-03-01T09:20:50;101444.19;;;4.61;59.48
2339;BME280;1180;51.438;6.978;2023-03-01T09:23:16;101433.97;;;4.67;58.76
2339;BME280;1180;51.438;6.978;2023-03-01T09:25:41;101437.53;;;4.55;58.26
2339;BME280;1180;51.438;6.978;2023-03-01T09:28:06;101437.91;;;4.26;59.38
2339;BME280;1180;51.438;6.978;2023-03-01T09:30:32;101439.44;;;4.39;58.83
2339;BME280;1180;51.438;6.978;2023-03-01T09:32:57;101425.97;;;4.34;57.77
2339;BME280;1180;51.438;6.978;2023-03-01T09:35:22;101432.59;;;4.44;57.38
2339;BME280;1180;51.438;6.978;2023-03-01T09:37:48;101426.75;;;4.38;56.77
2339;BME280;1180;51.438;6.978;2023-03-01T09:40:18;101418.97;;;4.47;56.35
2339;BME280;1180;51.438;6.978;2023-03-01T09:42:54;101420.56;;;4.56;55.91
2339;BME280;1180;51.438;6.978;2023-03-01T09:45:30;101410.53;;;4.48;55.83
2339;BME280;1180;51.438;6.978;2023-03-01T09:47:58;101415.47;;;4.56;55.71
2339;BME280;1180;51.438;6.978;2023-03-01T09:50:35;101415.34;;;4.63;56.09
2339;BME280;1180;51.438;6.978;2023-03-01T09:53:04;101414.94;;;4.90;55.50
2339;BME280;1180;51.438;6.978;2023-03-01T09:55:45;101408.53;;;4.67;55.32
2339;BME280;1180;51.438;6.978;2023-03-01T10:04:37;101408.75;;;5.05;54.35
2339;BME280;1180;51.438;6.978;2023-03-01T10:09:39;101407.53;;;4.76;54.54
2339;BME280;1180;51.438;6.978;2023-03-01T10:12:09;101404.00;;;4.85;54.59
2339;BME280;1180;51.438;6.978;2023-03-01T10:14:59;101402.81;;;5.04;54.40
2339;BME280;1180;51.438;6.978;2023-03-01T10:17:30;101400.53;;;5.38;54.01
2339;BME280;1180;51.438;6.978;2023-03-01T10:22:40;101399.72;;;5.35;52.43
2339;BME280;1180;51.438;6.978;2023-03-01T10:25:05;101396.50;;;5.26;52.25
2339;BME280;1180;51.438;6.978;2023-03-01T10:27:40;101393.66;;;5.43;52.18
2339;BME280;1180;51.438;6.978;2023-03-01T10:30:21;101386.00;;;5.43;52.20
2339;BME280;1180;51.438;6.978;2023-03-01T10:32:51;101379.38;;;5.34;51.78
2339;BME280;1180;51.438;6.978;2023-03-01T10:35:27;101381.06;;;5.35;52.28
2339;BME280;1180;51.438;6.978;2023-03-01T10:40:28;101372.78;;;5.68;52.26
2339;BME280;1180;51.438;6.978;2023-03-01T10:42:57;101371.13;;;5.67;51.52
2339;BME280;1180;51.438;6.978;2023-03-01T10:45:36;101362.91;;;5.52;50.71
2339;BME280;1180;51.438;6.978;2023-03-01T10:50:33;101364.03;;;5.37;50.17
2339;BME280;1180;51.438;6.978;2023-03-01T10:53:01;101354.25;;;5.61;50.80
2339;BME280;1180;51.438;6.978;2023-03-01T10:55:33;101350.09;;;5.57;50.77
2339;BME280;1180;51.438;6.978;2023-03-01T10:58:21;101349.06;;;5.66;51.01
2339;BME280;1180;51.438;6.978;2023-03-01T11:00:51;101349.53;;;5.83;49.50
2339;BME280;1180;51.438;6.978;2023-03-01T11:05:54;101335.47;;;5.67;49.61
2339;BME280;1180;51.438;6.978;2023-03-01T11:11:33;101328.50;;;5.73;49.89
2339;BME280;1180;51.438;6.978;2023-03-01T11:14:03;101322.72;;;5.67;49.44
2339;BME280;1180;51.438;6.978;2023-03-01T11:16:39;101328.78;;;6.00;49.03
2339;BME280;1180;51.438;6.978;2023-03-01T11:21:35;101319.47;;;6.37;48.20
2339;BME280;1180;51.438;6.978;2023-03-01T11:24:03;101313.97;;;6.18;48.09
2339;BME280;1180;51.438;6.978;2023-03-01T11:26:31;101313.78;;;6.26;48.59
2339;BME280;1180;51.438;6.978;2023-03-01T11:29:04;101315.34;;;6.66;48.39
2339;BME280;1180;51.438;6.978;2023-03-01T11:31:33;101312.56;;;6.75;47.72
2339;BME280;1180;51.438;6.978;2023-03-01T11:34:12;101315.00;;;6.47;47.89
2339;BME280;1180;51.438;6.978;2023-03-01T11:36:48;101312.03;;;6.62;48.30
2339;BME280;1180;51.438;6.978;2023-03-01T11:39:27;101318.78;;;6.65;47.46
2339;BME280;1180;51.438;6.978;2023-03-01T11:42:06;101319.50;;;6.35;47.95
2339;BME280;1180;51.438;6.978;2023-03-01T11:44:37;101320.00;;;6.50;48.29
2339;BME280;1180;51.438;6.978;2023-03-01T11:49:54;101321.75;;;6.48;47.40
2339;BME280;1180;51.438;6.978;2023-03-01T11:52:34;101328.31;;;6.57;46.60
2339;BME280;1180;51.438;6.978;2023-03-01T11:55:16;101319.31;;;6.43;47.40
2339;BME280;1180;51.438;6.978;2023-03-01T12:12:34;101305.25;;;6.94;46.54
2339;BME280;1180;51.438;6.978;2023-03-01T12:15:39;101303.19;;;6.76;47.24
2339;BME280;1180;51.438;6.978;2023-03-01T12:21:14;101289.28;;;7.48;46.55
2339;BME280;1180;51.438;6.978;2023-03-01T12:24:02;101278.38;;;7.71;46.26
2339;BME280;1180;51.438;6.978;2023-03-01T12:27:32;101271.13;;;7.57;45.54
2339;BME280;1180;51.438;6.978;2023-03-01T12:29:34;101270.06;;;7.06;47.02
2339;BME280;1180;51.438;6.978;2023-03-01T12:34:55;101269.81;;;6.84;47.58
2339;BME280;1180;51.438;6.978;2023-03-01T12:37:33;101260.97;;;6.97;47.35
2339;BME280;1180;51.438;6.978;2023-03-01T12:50:38;101249.88;;;7.57;44.97
2339;BME280;1180;51.438;6.978;2023-03-01T12:53:05;101246.75;;;7.47;45.46
2339;BME280;1180;51.438;6.978;2023-03-01T12:55:41;101234.22;;;7.39;45.38
2339;BME280;1180;51.438;6.978;2023-03-01T12:58:32;101237.09;;;7.57;45.13
2339;BME280;1180;51.438;6.978;2023-03-01T13:11:43;101233.31;;;8.22;43.94
2339;BME280;1180;51.438;6.978;2023-03-01T13:14:35;101233.47;;;8.18;43.31
2339;BME280;1180;51.438;6.978;2023-03-01T13:17:00;101232.69;;;8.16;43.56
2339;BME280;1180;51.438;6.978;2023-03-01T13:19:28;101227.91;;;8.32;43.25
2339;BME280;1180;51.438;6.978;2023-03-01T13:22:29;101223.84;;;8.24;43.42
2339;BME280;1180;51.438;6.978;2023-03-01T13:25:11;101219.22;;;8.36;43.35
2339;BME280;1180;51.438;6.978;2023-03-01T13:27:38;101214.00;;;8.39;43.23
2339;BME280;1180;51.438;6.978;2023-03-01T13:30:04;101213.16;;;8.38;44.15
2339;BME280;1180;51.438;6.978;2023-03-01T13:32:35;101210.97;;;8.28;43.71
2339;BME280;1180;51.438;6.978;2023-03-01T13:37:44;101204.41;;;8.20;44.62
2339;BME280;1180;51.438;6.978;2023-03-01T13:45:59;101188.78;;;8.53;44.00
2339;BME280;1180;51.438;6.978;2023-03-01T13:48:28;101193.13;;;8.51;44.09
2339;BME280;1180;51.438;6.978;2023-03-01T13:51:05;101183.69;;;8.28;44.64
2339;BME280;1180;51.438;6.978;2023-03-01T13:53:37;101179.03;;;8.65;44.41
2339;BME280;1180;51.438;6.978;2023-03-01T13:56:16;101180.31;;;8.53;44.10
2339;BME280;1180;51.438;6.978;2023-03-01T14:01:25;101180.50;;;8.47;43.99
2339;BME280;1180;51.438;6.978;2023-03-01T14:03:51;101177.00;;;8.49;44.22
2339;BME280;1180;51.438;6.978;2023-03-01T14:06:21;101176.69;;;8.08;44.16
2339;BME280;1180;51.438;6.978;2023-03-01T14:08:49;101172.16;;;8.16;44.92
2339;BME280;1180;51.438;6.978;2023-03-01T14:20:01;101155.72;;;8.47;45.92
2339;BME280;1180;51.438;6.978;2023-03-01T14:22:34;101155.91;;;8.90;45.79
2339;BME280;1180;51.438;6.978;2023-03-01T14:25:02;101156.53;;;9.19;43.24
2339;BME280;1180;51.438;6.978;2023-03-01T14:27:39;101153.06;;;9.20;44.24
2339;BME280;1180;51.438;6.978;2023-03-01T14:32:37;101142.78;;;8.76;43.24
2339;BME280;1180;51.438;6.978;2023-03-01T14:35:03;101137.34;;;9.07;43.88
2339;BME280;1180;51.438;6.978;2023-03-01T14:37:34;101133.00;;;9.09;43.92
2339;BME280;1180;51.438;6.978;2023-03-01T14:40:02;101133.59;;;9.16;43.06
2339;BME280;1180;51.438;6.978;2023-03-01T14:42:34;101132.88;;;8.90;43.04
2339;BME280;1180;51.438;6.978;2023-03-01T14:45:01;101135.84;;;8.79;43.61
2339;BME280;1180;51.438;6.978;2023-03-01T14:47:32;101126.50;;;9.01;43.42
2339;BME280;1180;51.438;6.978;2023-03-01T14:50:07;101118.41;;;9.12;42.83
2339;BME280;1180;51.438;6.978;2023-03-01T14:52:35;101122.38;;;9.41;42.99
2339;BME280;1180;51.438;6.978;2023-03-01T14:55:04;101116.44;;;9.82;41.64
2339;BME280;1180;51.438;6.978;2023-03-01T14:57:30;101111.75;;;10.13;41.91
2339;BME280;1180;51.438;6.978;2023-03-01T15:00:01;101111.75;;;9.50;42.03
2339;BME280;1180;51.438;6.978;2023-03-01T15:02:31;101105.09;;;9.46;41.81
2339;BME280;1180;51.438;6.978;2023-03-01T15:05:02;101111.56;;;9.34;42.33
2339;BME280;1180;51.438;6.978;2023-03-01T15:07:35;101104.25;;;9.46;42.84
2339;BME280;1180;51.438;6.978;2023-03-01T15:10:04;101098.56;;;9.60;42.41
2339;BME280;1180;51.438;6.978;2023-03-01T15:12:37;101098.56;;;9.80;42.06